sensor_id;sensor_type;location;lat;lon;timestamp;P1;durP1;ratioP1;P2;durP2;ratioP2
21084;SDS011;34247;50.064;19.970;2023-06-14T00:00:40;3.75;;;2.70;;
21084;SDS011;34247;50.064;19.970;2023-06-14T00:02:17;6.93;;;3.35;;
21084;SDS011;34247;50.064;19.970;2023-06-14T00:03:54;9.65;;;2.97;;
21084;SDS011;34247;50.064;19.970;2023-06-14T00:05:30;6.60;;;3.33;;
21084;SDS011;34247;50.064;19.970;2023-06-14T00:07:12;5.20;;;3.03;;
21084;SDS011;34247;50.064;19.970;2023-06-14T00:08:48;4.68;;;2.65;;
21084;SDS011;34247;50.064;19.970;2023-06-14T00:10:25;4.68;;;2.70;;
21084;SDS011;34247;50.064;19.970;2023-06-14T00:12:03;5.53;;;2.85;;
21084;SDS011;34247;50.064;19.970;2023-06-14T00:13:38;4.53;;;2.88;;
21084;SDS011;34247;50.064;19.970;2023-06-14T00:15:11;4.72;;;2.45;;
21084;SDS011;34247;50.064;19.970;2023-06-14T00:16:45;6.05;;;2.95;;
21084;SDS011;34247;50.064;19.970;2023-06-14T00:18:18;6.85;;;3.38;;
21084;SDS011;34247;50.064;19.970;2023-06-14T00:19:51;5.47;;;2.50;;
21084;SDS011;34247;50.064;19.970;2023-06-14T00:21:25;3.67;;;2.65;;
21084;SDS011;34247;50.064;19.970;2023-06-14T00:22:59;5.05;;;2.95;;
21084;SDS011;34247;50.064;19.970;2023-06-14T00:24:33;3.83;;;3.05;;
21084;SDS011;34247;50.064;19.970;2023-06-14T00:26:06;4.95;;;2.75;;
21084;SDS011;34247;50.064;19.970;2023-06-14T00:27:40;5.30;;;2.60;;
21084;SDS011;34247;50.064;19.970;2023-06-14T00:29:13;5.05;;;3.28;;
21084;SDS011;34247;50.064;19.970;2023-06-14T00:30:47;5.45;;;2.88;;
21084;SDS011;34247;50.064;19.970;2023-06-14T00:32:23;2.63;;;1.90;;
21084;SDS011;34247;50.064;19.970;2023-06-14T00:33:57;5.07;;;2.60;;
21084;SDS011;34247;50.064;19.970;2023-06-14T00:35:30;3.08;;;2.30;;
21084;SDS011;34247;50.064;19.970;2023-06-14T00:37:03;5.60;;;3.05;;
21084;SDS011;34247;50.064;19.970;2023-06-14T00:38:37;4.25;;;2.83;;
21084;SDS011;34247;50.064;19.970;2023-06-14T00:40:10;4.30;;;2.40;;
21084;SDS011;34247;50.064;19.970;2023-06-14T00:41:45;5.05;;;3.03;;
21084;SDS011;34247;50.064;19.970;2023-06-14T00:43:19;6.45;;;3.10;;
21084;SDS011;34247;50.064;19.970;2023-06-14T00:44:52;5.38;;;2.80;;
21084;SDS011;34247;50.064;19.970;2023-06-14T00:46:27;8.88;;;3.28;;
21084;SDS011;34247;50.064;19.970;2023-06-14T00:48:01;4.93;;;2.75;;
21084;SDS011;34247;50.064;19.970;2023-06-14T00:49:37;4.80;;;3.30;;
21084;SDS011;34247;50.064;19.970;2023-06-14T00:51:10;6.50;;;2.95;;
21084;SDS011;34247;50.064;19.970;2023-06-14T00:52:44;3.75;;;2.08;;
21084;SDS011;34247;50.064;19.970;2023-06-14T00:54:17;5.20;;;3.40;;
21084;SDS011;34247;50.064;19.970;2023-06-14T00:55:51;4.70;;;3.08;;
21084;SDS011;34247;50.064;19.970;2023-06-14T00:57:24;4.40;;;2.75;;
21084;SDS011;34247;50.064;19.970;2023-06-14T00:58:58;4.18;;;2.33;;
21084;SDS011;34247;50.064;19.970;2023-06-14T01:00:32;4.82;;;3.08;;
21084;SDS011;34247;50.064;19.970;2023-06-14T01:02:05;5.22;;;3.08;;
21084;SDS011;34247;50.064;19.970;2023-06-14T01:03:39;5.60;;;2.65;;
21084;SDS011;34247;50.064;19.970;2023-06-14T01:05:16;4.15;;;2.90;;
21084;SDS011;34247;50.064;19.970;2023-06-14T01:06:59;4.43;;;2.90;;
21084;SDS011;34247;50.064;19.970;2023-06-14T01:08:52;4.90;;;2.75;;
21084;SDS011;34247;50.064;19.970;2023-06-14T01:10:58;4.43;;;3.28;;
21084;SDS011;34247;50.064;19.970;2023-06-14T01:12:50;6.55;;;3.40;;
21084;SDS011;34247;50.064;19.970;2023-06-14T01:14:34;5.45;;;3.28;;
21084;SDS011;34247;50.064;19.970;2023-06-14T01:16:08;6.10;;;2.90;;
21084;SDS011;34247;50.064;19.970;2023-06-14T01:17:44;4.90;;;2.97;;
21084;SDS011;34247;50.064;19.970;2023-06-14T01:19:18;8.75;;;3.28;;
21084;SDS011;34247;50.064;19.970;2023-06-14T01:20:54;4.20;;;2.67;;
21084;SDS011;34247;50.064;19.970;2023-06-14T01:22:28;6.60;;;3.03;;
21084;SDS011;34247;50.064;19.970;2023-06-14T01:24:02;7.85;;;3.28;;
21084;SDS011;34247;50.064;19.970;2023-06-14T01:25:36;5.80;;;3.08;;
21084;SDS011;34247;50.064;19.970;2023-06-14T01:27:09;6.88;;;3.08;;
21084;SDS011;34247;50.064;19.970;2023-06-14T01:28:45;7.00;;;3.58;;
21084;SDS011;34247;50.064;19.970;2023-06-14T01:30:23;6.30;;;3.42;;
21084;SDS011;34247;50.064;19.970;2023-06-14T01:31:59;4.72;;;3.08;;
21084;SDS011;34247;50.064;19.970;2023-06-14T01:33:33;7.22;;;3.15;;
21084;SDS011;34247;50.064;19.970;2023-06-14T01:35:09;5.80;;;3.10;;
21084;SDS011;34247;50.064;19.970;2023-06-14T01:36:43;6.18;;;3.20;;
21084;SDS011;34247;50.064;19.970;2023-06-14T01:38:19;6.18;;;3.40;;
21084;SDS011;34247;50.064;19.970;2023-06-14T01:39:57;9.10;;;3.83;;
21084;SDS011;34247;50.064;19.970;2023-06-14T01:41:32;5.88;;;3.35;;
21084;SDS011;34247;50.064;19.970;2023-06-14T01:43:13;5.63;;;3.17;;
21084;SDS011;34247;50.064;19.970;2023-06-14T01:44:48;7.45;;;3.08;;
21084;SDS011;34247;50.064;19.970;2023-06-14T01:46:24;6.88;;;3.03;;
21084;SDS011;34247;50.064;19.970;2023-06-14T01:47:59;8.20;;;3.50;;
21084;SDS011;34247;50.064;19.970;2023-06-14T01:49:33;7.93;;;4.20;;
21084;SDS011;34247;50.064;19.970;2023-06-14T01:51:07;7.20;;;3.20;;
21084;SDS011;34247;50.064;19.970;2023-06-14T01:52:44;5.38;;;3.10;;
21084;SDS011;34247;50.064;19.970;2023-06-14T01:54:17;6.18;;;3.38;;
21084;SDS011;34247;50.064;19.970;2023-06-14T01:55:56;8.35;;;3.67;;
21084;SDS011;34247;50.064;19.970;2023-06-14T01:57:31;7.25;;;3.30;;
21084;SDS011;34247;50.064;19.970;2023-06-14T01:59:05;8.00;;;4.07;;
21084;SDS011;34247;50.064;19.970;2023-06-14T02:00:48;6.70;;;3.17;;
21084;SDS011;34247;50.064;19.970;2023-06-14T02:02:22;5.45;;;2.47;;
21084;SDS011;34247;50.064;19.970;2023-06-14T02:03:58;9.43;;;3.60;;
21084;SDS011;34247;50.064;19.970;2023-06-14T02:05:33;4.85;;;3.28;;
21084;SDS011;34247;50.064;19.970;2023-06-14T02:07:10;4.63;;;2.67;;
21084;SDS011;34247;50.064;19.970;2023-06-14T02:08:44;8.27;;;3.45;;
21084;SDS011;34247;50.064;19.970;2023-06-14T02:10:18;7.22;;;2.95;;
21084;SDS011;34247;50.064;19.970;2023-06-14T02:11:53;8.23;;;3.55;;
21084;SDS011;34247;50.064;19.970;2023-06-14T02:13:31;12.20;;;3.08;;
21084;SDS011;34247;50.064;19.970;2023-06-14T02:15:06;4.13;;;2.90;;
21084;SDS011;34247;50.064;19.970;2023-06-14T02:16:45;4.75;;;2.88;;
21084;SDS011;34247;50.064;19.970;2023-06-14T02:18:21;7.72;;;3.67;;
21084;SDS011;34247;50.064;19.970;2023-06-14T02:19:58;9.88;;;3.80;;
21084;SDS011;34247;50.064;19.970;2023-06-14T02:21:32;11.80;;;3.88;;
21084;SDS011;34247;50.064;19.970;2023-06-14T02:23:06;7.93;;;3.08;;
21084;SDS011;34247;50.064;19.970;2023-06-14T02:24:43;8.02;;;4.03;;
21084;SDS011;34247;50.064;19.970;2023-06-14T02:26:26;9.40;;;4.00;;
21084;SDS011;34247;50.064;19.970;2023-06-14T02:27:59;5.15;;;3.13;;
21084;SDS011;34247;50.064;19.970;2023-06-14T02:29:33;7.25;;;2.75;;
21084;SDS011;34247;50.064;19.970;2023-06-14T02:31:06;5.70;;;3.08;;
21084;SDS011;34247;50.064;19.970;2023-06-14T02:32:39;5.00;;;3.17;;
21084;SDS011;34247;50.064;19.970;2023-06-14T02:34:14;6.07;;;3.17;;
21084;SDS011;34247;50.064;19.970;2023-06-14T02:35:47;6.63;;;3.08;;
21084;SDS011;34247;50.064;19.970;2023-06-14T02:37:20;6.07;;;3.25;;
21084;SDS011;34247;50.064;19.970;2023-06-14T02:38:54;10.80;;;3.42;;
21084;SDS011;34247;50.064;19.970;2023-06-14T02:40:34;9.90;;;3.85;;
21084;SDS011;34247;50.064;19.970;2023-06-14T02:42:17;7.60;;;3.20;;
21084;SDS011;34247;50.064;19.970;2023-06-14T02:43:59;8.57;;;3.38;;
21084;SDS011;34247;50.064;19.970;2023-06-14T02:45:37;5.82;;;2.47;;
21084;SDS011;34247;50.064;19.970;2023-06-14T02:47:20;8.38;;;3.92;;
21084;SDS011;34247;50.064;19.970;2023-06-14T02:48:53;4.28;;;2.90;;
21084;SDS011;34247;50.064;19.970;2023-06-14T02:50:29;5.10;;;2.63;;
21084;SDS011;34247;50.064;19.970;2023-06-14T02:52:05;6.82;;;2.95;;
21084;SDS011;34247;50.064;19.970;2023-06-14T02:53:43;7.13;;;2.78;;
21084;SDS011;34247;50.064;19.970;2023-06-14T02:55:21;6.95;;;2.92;;
21084;SDS011;34247;50.064;19.970;2023-06-14T02:57:08;5.68;;;3.28;;
21084;SDS011;34247;50.064;19.970;2023-06-14T02:58:43;6.32;;;3.20;;
21084;SDS011;34247;50.064;19.970;2023-06-14T03:00:28;5.03;;;2.50;;
21084;SDS011;34247;50.064;19.970;2023-06-14T03:02:17;3.72;;;2.00;;
21084;SDS011;34247;50.064;19.970;2023-06-14T03:03:51;4.93;;;2.78;;
21084;SDS011;34247;50.064;19.970;2023-06-14T03:05:28;7.63;;;2.83;;
21084;SDS011;34247;50.064;19.970;2023-06-14T03:07:02;6.38;;;3.40;;
21084;SDS011;34247;50.064;19.970;2023-06-14T03:08:36;6.20;;;2.33;;
21084;SDS011;34247;50.064;19.970;2023-06-14T03:10:09;4.85;;;2.40;;
21084;SDS011;34247;50.064;19.970;2023-06-14T03:11:42;4.57;;;2.40;;
21084;SDS011;34247;50.064;19.970;2023-06-14T03:13:16;4.95;;;2.30;;
21084;SDS011;34247;50.064;19.970;2023-06-14T03:14:49;5.38;;;2.28;;
21084;SDS011;34247;50.064;19.970;2023-06-14T03:16:23;5.80;;;3.00;;
21084;SDS011;34247;50.064;19.970;2023-06-14T03:17:59;5.60;;;2.92;;
21084;SDS011;34247;50.064;19.970;2023-06-14T03:19:35;3.95;;;1.98;;
21084;SDS011;34247;50.064;19.970;2023-06-14T03:21:15;5.38;;;2.38;;
21084;SDS011;34247;50.064;19.970;2023-06-14T03:22:55;4.45;;;2.60;;
21084;SDS011;34247;50.064;19.970;2023-06-14T03:24:29;4.53;;;2.42;;
21084;SDS011;34247;50.064;19.970;2023-06-14T03:26:09;3.67;;;2.33;;
21084;SDS011;34247;50.064;19.970;2023-06-14T03:27:47;6.57;;;3.65;;
21084;SDS011;34247;50.064;19.970;2023-06-14T03:29:34;8.70;;;4.97;;
21084;SDS011;34247;50.064;19.970;2023-06-14T03:31:11;9.38;;;4.18;;
21084;SDS011;34247;50.064;19.970;2023-06-14T03:32:47;5.32;;;3.42;;
21084;SDS011;34247;50.064;19.970;2023-06-14T03:34:41;5.20;;;2.63;;
21084;SDS011;34247;50.064;19.970;2023-06-14T03:36:15;7.03;;;2.42;;
21084;SDS011;34247;50.064;19.970;2023-06-14T03:38:03;6.93;;;2.55;;
21084;SDS011;34247;50.064;19.970;2023-06-14T03:39:43;5.28;;;2.80;;
21084;SDS011;34247;50.064;19.970;2023-06-14T03:41:29;8.27;;;2.67;;
21084;SDS011;34247;50.064;19.970;2023-06-14T03:43:10;4.60;;;2.15;;
21084;SDS011;34247;50.064;19.970;2023-06-14T03:44:52;4.57;;;2.38;;
21084;SDS011;34247;50.064;19.970;2023-06-14T03:46:25;4.72;;;2.40;;
21084;SDS011;34247;50.064;19.970;2023-06-14T03:48:05;4.78;;;2.72;;
21084;SDS011;34247;50.064;19.970;2023-06-14T03:49:54;5.70;;;3.20;;
21084;SDS011;34247;50.064;19.970;2023-06-14T03:51:40;6.65;;;3.47;;
21084;SDS011;34247;50.064;19.970;2023-06-14T03:53:16;5.68;;;3.22;;
21084;SDS011;34247;50.064;19.970;2023-06-14T03:54:52;6.53;;;3.22;;
21084;SDS011;34247;50.064;19.970;2023-06-14T03:56:49;7.20;;;3.63;;
21084;SDS011;34247;50.064;19.970;2023-06-14T03:58:29;6.85;;;4.07;;
21084;SDS011;34247;50.064;19.970;2023-06-14T04:00:03;6.40;;;4.00;;
21084;SDS011;34247;50.064;19.970;2023-06-14T04:01:57;5.72;;;4.03;;
21084;SDS011;34247;50.064;19.970;2023-06-14T04:03:39;7.50;;;3.03;;
21084;SDS011;34247;50.064;19.970;2023-06-14T04:05:30;4.90;;;3.15;;
21084;SDS011;34247;50.064;19.970;2023-06-14T04:07:11;7.55;;;3.60;;
21084;SDS011;34247;50.064;19.970;2023-06-14T04:08:58;6.50;;;3.35;;
21084;SDS011;34247;50.064;19.970;2023-06-14T04:12:26;8.93;;;3.65;;
21084;SDS011;34247;50.064;19.970;2023-06-14T04:14:03;7.22;;;3.90;;
21084;SDS011;34247;50.064;19.970;2023-06-14T04:15:43;5.13;;;3.20;;
21084;SDS011;34247;50.064;19.970;2023-06-14T04:17:28;6.80;;;3.85;;
21084;SDS011;34247;50.064;19.970;2023-06-14T04:19:15;5.38;;;3.55;;
21084;SDS011;34247;50.064;19.970;2023-06-14T04:21:05;5.03;;;3.20;;
21084;SDS011;34247;50.064;19.970;2023-06-14T04:23:18;9.40;;;4.55;;
21084;SDS011;34247;50.064;19.970;2023-06-14T04:25:13;5.10;;;3.20;;
21084;SDS011;34247;50.064;19.970;2023-06-14T04:27:16;8.07;;;3.40;;
21084;SDS011;34247;50.064;19.970;2023-06-14T04:28:57;9.65;;;3.88;;
21084;SDS011;34247;50.064;19.970;2023-06-14T04:31:07;8.93;;;3.25;;
21084;SDS011;34247;50.064;19.970;2023-06-14T04:33:00;10.45;;;3.25;;
21084;SDS011;34247;50.064;19.970;2023-06-14T04:34:57;6.18;;;2.60;;
21084;SDS011;34247;50.064;19.970;2023-06-14T04:36:34;4.47;;;2.78;;
21084;SDS011;34247;50.064;19.970;2023-06-14T04:38:16;5.00;;;3.10;;
21084;SDS011;34247;50.064;19.970;2023-06-14T04:39:49;11.25;;;3.60;;
21084;SDS011;34247;50.064;19.970;2023-06-14T04:41:22;9.60;;;3.88;;
21084;SDS011;34247;50.064;19.970;2023-06-14T04:42:55;6.20;;;3.38;;
21084;SDS011;34247;50.064;19.970;2023-06-14T04:44:28;8.02;;;2.95;;
21084;SDS011;34247;50.064;19.970;2023-06-14T04:46:02;8.07;;;3.80;;
21084;SDS011;34247;50.064;19.970;2023-06-14T04:47:36;7.55;;;3.45;;
21084;SDS011;34247;50.064;19.970;2023-06-14T04:49:09;11.25;;;3.40;;
21084;SDS011;34247;50.064;19.970;2023-06-14T04:50:42;7.40;;;3.90;;
21084;SDS011;34247;50.064;19.970;2023-06-14T04:52:15;7.50;;;3.95;;
21084;SDS011;34247;50.064;19.970;2023-06-14T04:53:49;9.00;;;4.00;;
21084;SDS011;34247;50.064;19.970;2023-06-14T04:55:22;7.63;;;4.28;;
21084;SDS011;34247;50.064;19.970;2023-06-14T04:56:56;7.80;;;3.88;;
21084;SDS011;34247;50.064;19.970;2023-06-14T04:58:30;7.28;;;4.00;;
21084;SDS011;34247;50.064;19.970;2023-06-14T05:00:03;8.52;;;4.60;;
21084;SDS011;34247;50.064;19.970;2023-06-14T05:01:38;7.75;;;4.40;;
21084;SDS011;34247;50.064;19.970;2023-06-14T05:03:11;6.72;;;3.60;;
21084;SDS011;34247;50.064;19.970;2023-06-14T05:04:45;6.75;;;3.78;;
21084;SDS011;34247;50.064;19.970;2023-06-14T05:06:18;6.82;;;3.65;;
21084;SDS011;34247;50.064;19.970;2023-06-14T05:07:51;13.63;;;3.65;;
21084;SDS011;34247;50.064;19.970;2023-06-14T05:09:24;7.18;;;4.20;;
21084;SDS011;34247;50.064;19.970;2023-06-14T05:10:57;8.18;;;2.92;;
21084;SDS011;34247;50.064;19.970;2023-06-14T05:12:31;10.80;;;4.00;;
21084;SDS011;34247;50.064;19.970;2023-06-14T05:14:05;8.32;;;4.22;;
21084;SDS011;34247;50.064;19.970;2023-06-14T05:15:39;14.68;;;4.15;;
21084;SDS011;34247;50.064;19.970;2023-06-14T05:17:17;11.50;;;5.75;;
21084;SDS011;34247;50.064;19.970;2023-06-14T05:18:50;9.25;;;4.30;;
21084;SDS011;34247;50.064;19.970;2023-06-14T05:20:24;8.30;;;4.32;;
21084;SDS011;34247;50.064;19.970;2023-06-14T05:21:58;9.30;;;4.13;;
21084;SDS011;34247;50.064;19.970;2023-06-14T05:23:31;9.52;;;4.55;;
21084;SDS011;34247;50.064;19.970;2023-06-14T05:25:05;10.60;;;4.32;;
21084;SDS011;34247;50.064;19.970;2023-06-14T05:26:39;8.82;;;4.18;;
21084;SDS011;34247;50.064;19.970;2023-06-14T05:28:12;9.10;;;4.32;;
21084;SDS011;34247;50.064;19.970;2023-06-14T05:29:46;8.75;;;5.15;;
21084;SDS011;34247;50.064;19.970;2023-06-14T05:31:21;15.90;;;7.00;;
21084;SDS011;34247;50.064;19.970;2023-06-14T05:32:58;9.85;;;4.93;;
21084;SDS011;34247;50.064;19.970;2023-06-14T05:34:31;11.40;;;5.45;;
21084;SDS011;34247;50.064;19.970;2023-06-14T05:36:07;8.48;;;4.55;;
21084;SDS011;34247;50.064;19.970;2023-06-14T05:37:41;11.00;;;4.55;;
21084;SDS011;34247;50.064;19.970;2023-06-14T05:39:15;11.25;;;4.90;;
21084;SDS011;34247;50.064;19.970;2023-06-14T05:40:48;6.50;;;4.10;;
21084;SDS011;34247;50.064;19.970;2023-06-14T05:42:23;7.10;;;3.90;;
21084;SDS011;34247;50.064;19.970;2023-06-14T05:43:56;7.45;;;4.40;;
21084;SDS011;34247;50.064;19.970;2023-06-14T05:45:30;8.77;;;4.22;;
21084;SDS011;34247;50.064;19.970;2023-06-14T05:47:03;12.32;;;4.85;;
21084;SDS011;34247;50.064;19.970;2023-06-14T05:48:38;8.52;;;4.18;;
21084;SDS011;34247;50.064;19.970;2023-06-14T05:50:12;9.63;;;3.40;;
21084;SDS011;34247;50.064;19.970;2023-06-14T05:51:46;5.57;;;4.10;;
21084;SDS011;34247;50.064;19.970;2023-06-14T05:53:19;7.93;;;4.47;;
21084;SDS011;34247;50.064;19.970;2023-06-14T05:54:53;9.02;;;4.78;;
21084;SDS011;34247;50.064;19.970;2023-06-14T05:56:29;7.93;;;4.70;;
21084;SDS011;34247;50.064;19.970;2023-06-14T05:58:04;11.48;;;4.25;;
21084;SDS011;34247;50.064;19.970;2023-06-14T05:59:37;12.65;;;5.45;;
21084;SDS011;34247;50.064;19.970;2023-06-14T06:01:12;10.90;;;4.40;;
21084;SDS011;34247;50.064;19.970;2023-06-14T06:02:47;8.00;;;4.45;;
21084;SDS011;34247;50.064;19.970;2023-06-14T06:04:22;8.40;;;4.18;;
21084;SDS011;34247;50.064;19.970;2023-06-14T06:05:56;9.65;;;4.38;;
21084;SDS011;34247;50.064;19.970;2023-06-14T06:07:33;10.40;;;4.65;;
21084;SDS011;34247;50.064;19.970;2023-06-14T06:09:33;9.82;;;4.50;;
21084;SDS011;34247;50.064;19.970;2023-06-14T06:11:24;9.23;;;4.78;;
21084;SDS011;34247;50.064;19.970;2023-06-14T06:13:27;8.98;;;4.68;;
21084;SDS011;34247;50.064;19.970;2023-06-14T06:15:24;8.15;;;3.97;;
21084;SDS011;34247;50.064;19.970;2023-06-14T06:16:57;6.15;;;4.18;;
21084;SDS011;34247;50.064;19.970;2023-06-14T06:18:31;8.88;;;4.57;;
21084;SDS011;34247;50.064;19.970;2023-06-14T06:20:06;11.52;;;4.50;;
21084;SDS011;34247;50.064;19.970;2023-06-14T06:21:39;12.13;;;4.43;;
21084;SDS011;34247;50.064;19.970;2023-06-14T06:23:13;7.30;;;4.03;;
21084;SDS011;34247;50.064;19.970;2023-06-14T06:24:47;7.70;;;4.38;;
21084;SDS011;34247;50.064;19.970;2023-06-14T06:26:22;9.95;;;4.50;;
21084;SDS011;34247;50.064;19.970;2023-06-14T06:27:56;9.85;;;4.22;;
21084;SDS011;34247;50.064;19.970;2023-06-14T06:29:30;7.22;;;4.38;;
21084;SDS011;34247;50.064;19.970;2023-06-14T06:31:03;10.70;;;4.60;;
21084;SDS011;34247;50.064;19.970;2023-06-14T06:32:36;4.80;;;3.70;;
21084;SDS011;34247;50.064;19.970;2023-06-14T06:34:10;7.43;;;4.45;;
21084;SDS011;34247;50.064;19.970;2023-06-14T06:35:44;6.15;;;3.20;;
21084;SDS011;34247;50.064;19.970;2023-06-14T06:37:18;5.85;;;3.70;;
21084;SDS011;34247;50.064;19.970;2023-06-14T06:38:52;9.60;;;4.15;;
21084;SDS011;34247;50.064;19.970;2023-06-14T06:40:25;8.35;;;3.72;;
21084;SDS011;34247;50.064;19.970;2023-06-14T06:41:59;15.15;;;3.03;;
21084;SDS011;34247;50.064;19.970;2023-06-14T06:43:32;6.07;;;2.60;;
21084;SDS011;34247;50.064;19.970;2023-06-14T06:45:06;5.38;;;2.53;;
21084;SDS011;34247;50.064;19.970;2023-06-14T06:46:40;4.88;;;2.75;;
21084;SDS011;34247;50.064;19.970;2023-06-14T06:48:13;4.40;;;2.13;;
21084;SDS011;34247;50.064;19.970;2023-06-14T06:49:47;2.78;;;2.17;;
21084;SDS011;34247;50.064;19.970;2023-06-14T06:51:20;3.28;;;1.95;;
21084;SDS011;34247;50.064;19.970;2023-06-14T06:52:54;3.25;;;2.10;;
21084;SDS011;34247;50.064;19.970;2023-06-14T06:54:27;2.33;;;1.60;;
21084;SDS011;34247;50.064;19.970;2023-06-14T06:56:00;2.47;;;1.38;;
21084;SDS011;34247;50.064;19.970;2023-06-14T06:57:33;8.07;;;3.92;;
21084;SDS011;34247;50.064;19.970;2023-06-14T06:59:07;1.98;;;1.77;;
21084;SDS011;34247;50.064;19.970;2023-06-14T07:00:41;2.03;;;1.60;;
21084;SDS011;34247;50.064;19.970;2023-06-14T07:02:14;2.22;;;1.40;;
21084;SDS011;34247;50.064;19.970;2023-06-14T07:03:48;1.77;;;1.30;;
21084;SDS011;34247;50.064;19.970;2023-06-14T07:05:21;2.10;;;1.67;;
21084;SDS011;34247;50.064;19.970;2023-06-14T07:06:55;2.60;;;1.30;;
21084;SDS011;34247;50.064;19.970;2023-06-14T07:08:29;1.30;;;1.13;;
21084;SDS011;34247;50.064;19.970;2023-06-14T07:10:02;1.20;;;1.10;;
21084;SDS011;34247;50.064;19.970;2023-06-14T07:11:37;2.22;;;0.90;;
21084;SDS011;34247;50.064;19.970;2023-06-14T07:13:11;1.27;;;1.00;;
21084;SDS011;34247;50.064;19.970;2023-06-14T07:14:45;0.85;;;0.85;;
21084;SDS011;34247;50.064;19.970;2023-06-14T07:16:21;0.80;;;0.80;;
21084;SDS011;34247;50.064;19.970;2023-06-14T07:17:55;0.68;;;0.68;;
21084;SDS011;34247;50.064;19.970;2023-06-14T07:19:28;0.80;;;0.80;;
21084;SDS011;34247;50.064;19.970;2023-06-14T07:21:02;1.10;;;0.98;;
21084;SDS011;34247;50.064;19.970;2023-06-14T07:22:35;1.35;;;1.25;;
21084;SDS011;34247;50.064;19.970;2023-06-14T07:24:09;4.47;;;1.10;;
21084;SDS011;34247;50.064;19.970;2023-06-14T07:25:42;1.05;;;0.90;;
21084;SDS011;34247;50.064;19.970;2023-06-14T07:27:16;0.85;;;0.80;;
21084;SDS011;34247;50.064;19.970;2023-06-14T07:28:49;2.25;;;1.27;;
21084;SDS011;34247;50.064;19.970;2023-06-14T07:30:28;2.95;;;0.90;;
21084;SDS011;34247;50.064;19.970;2023-06-14T07:32:03;1.15;;;0.90;;
21084;SDS011;34247;50.064;19.970;2023-06-14T07:33:37;2.55;;;1.05;;
21084;SDS011;34247;50.064;19.970;2023-06-14T07:35:10;0.90;;;0.90;;
21084;SDS011;34247;50.064;19.970;2023-06-14T07:36:43;1.88;;;1.30;;
21084;SDS011;34247;50.064;19.970;2023-06-14T07:38:17;1.52;;;1.17;;
21084;SDS011;34247;50.064;19.970;2023-06-14T07:39:50;1.38;;;1.10;;
21084;SDS011;34247;50.064;19.970;2023-06-14T07:41:23;1.80;;;0.98;;
21084;SDS011;34247;50.064;19.970;2023-06-14T07:42:57;3.72;;;1.17;;
21084;SDS011;34247;50.064;19.970;2023-06-14T07:44:30;1.35;;;0.95;;
21084;SDS011;34247;50.064;19.970;2023-06-14T07:46:04;3.33;;;0.98;;
21084;SDS011;34247;50.064;19.970;2023-06-14T07:47:39;2.35;;;1.10;;
21084;SDS011;34247;50.064;19.970;2023-06-14T07:49:13;1.08;;;1.02;;
21084;SDS011;34247;50.064;19.970;2023-06-14T07:50:46;0.80;;;0.80;;
21084;SDS011;34247;50.064;19.970;2023-06-14T07:52:20;1.23;;;0.98;;
21084;SDS011;34247;50.064;19.970;2023-06-14T07:53:53;1.60;;;1.20;;
21084;SDS011;34247;50.064;19.970;2023-06-14T07:55:27;2.95;;;1.20;;
21084;SDS011;34247;50.064;19.970;2023-06-14T07:57:10;0.95;;;0.88;;
21084;SDS011;34247;50.064;19.970;2023-06-14T07:58:44;1.63;;;1.05;;
21084;SDS011;34247;50.064;19.970;2023-06-14T08:00:17;1.20;;;0.80;;
21084;SDS011;34247;50.064;19.970;2023-06-14T08:01:51;2.22;;;1.48;;
21084;SDS011;34247;50.064;19.970;2023-06-14T08:03:24;2.13;;;1.23;;
21084;SDS011;34247;50.064;19.970;2023-06-14T08:04:58;0.85;;;0.80;;
21084;SDS011;34247;50.064;19.970;2023-06-14T08:06:31;1.50;;;1.20;;
21084;SDS011;34247;50.064;19.970;2023-06-14T08:08:06;1.42;;;1.00;;
21084;SDS011;34247;50.064;19.970;2023-06-14T08:09:39;2.25;;;0.82;;
21084;SDS011;34247;50.064;19.970;2023-06-14T08:11:13;0.90;;;0.90;;
21084;SDS011;34247;50.064;19.970;2023-06-14T08:12:46;7.80;;;1.30;;
21084;SDS011;34247;50.064;19.970;2023-06-14T08:14:20;0.80;;;0.80;;
21084;SDS011;34247;50.064;19.970;2023-06-14T08:15:55;1.50;;;0.90;;
21084;SDS011;34247;50.064;19.970;2023-06-14T08:17:28;0.80;;;0.80;;
21084;SDS011;34247;50.064;19.970;2023-06-14T08:19:01;1.83;;;1.00;;
21084;SDS011;34247;50.064;19.970;2023-06-14T08:20:34;3.50;;;1.38;;
21084;SDS011;34247;50.064;19.970;2023-06-14T08:22:08;1.00;;;0.90;;
21084;SDS011;34247;50.064;19.970;2023-06-14T08:23:41;3.20;;;1.10;;
21084;SDS011;34247;50.064;19.970;2023-06-14T08:25:14;5.88;;;1.13;;
21084;SDS011;34247;50.064;19.970;2023-06-14T08:26:48;1.50;;;1.00;;
21084;SDS011;34247;50.064;19.970;2023-06-14T08:28:21;1.52;;;1.17;;
21084;SDS011;34247;50.064;19.970;2023-06-14T08:29:57;1.67;;;1.17;;
21084;SDS011;34247;50.064;19.970;2023-06-14T08:31:30;1.17;;;1.08;;
21084;SDS011;34247;50.064;19.970;2023-06-14T08:33:04;1.90;;;1.30;;
21084;SDS011;34247;50.064;19.970;2023-06-14T08:34:48;1.20;;;1.10;;
21084;SDS011;34247;50.064;19.970;2023-06-14T08:36:36;5.85;;;1.27;;
21084;SDS011;34247;50.064;19.970;2023-06-14T08:38:10;1.35;;;1.25;;
21084;SDS011;34247;50.064;19.970;2023-06-14T08:39:44;1.83;;;1.50;;
21084;SDS011;34247;50.064;19.970;2023-06-14T08:41:21;1.35;;;1.17;;
21084;SDS011;34247;50.064;19.970;2023-06-14T08:42:55;3.05;;;1.65;;
21084;SDS011;34247;50.064;19.970;2023-06-14T08:44:30;1.52;;;1.42;;
21084;SDS011;34247;50.064;19.970;2023-06-14T08:46:03;3.42;;;1.58;;
21084;SDS011;34247;50.064;19.970;2023-06-14T08:47:38;3.28;;;1.80;;
21084;SDS011;34247;50.064;19.970;2023-06-14T08:49:14;1.42;;;1.30;;
21084;SDS011;34247;50.064;19.970;2023-06-14T08:50:50;1.90;;;1.48;;
21084;SDS011;34247;50.064;19.970;2023-06-14T08:52:27;4.45;;;2.17;;
21084;SDS011;34247;50.064;19.970;2023-06-14T08:54:07;2.42;;;1.58;;
21084;SDS011;34247;50.064;19.970;2023-06-14T08:55:40;4.63;;;2.13;;
21084;SDS011;34247;50.064;19.970;2023-06-14T08:57:15;2.45;;;1.77;;
21084;SDS011;34247;50.064;19.970;2023-06-14T08:58:48;5.00;;;2.00;;
21084;SDS011;34247;50.064;19.970;2023-06-14T09:00:23;2.30;;;1.80;;
21084;SDS011;34247;50.064;19.970;2023-06-14T09:01:58;3.05;;;1.85;;
21084;SDS011;34247;50.064;19.970;2023-06-14T09:03:44;2.15;;;1.65;;
21084;SDS011;34247;50.064;19.970;2023-06-14T09:05:18;1.85;;;1.65;;
21084;SDS011;34247;50.064;19.970;2023-06-14T09:06:51;1.70;;;1.50;;
21084;SDS011;34247;50.064;19.970;2023-06-14T09:08:26;2.75;;;1.77;;
21084;SDS011;34247;50.064;19.970;2023-06-14T09:10:09;1.52;;;1.20;;
21084;SDS011;34247;50.064;19.970;2023-06-14T09:11:47;2.60;;;1.55;;
21084;SDS011;34247;50.064;19.970;2023-06-14T09:13:22;2.00;;;1.60;;
21084;SDS011;34247;50.064;19.970;2023-06-14T09:14:58;4.07;;;1.85;;
21084;SDS011;34247;50.064;19.970;2023-06-14T09:16:34;2.60;;;1.75;;
21084;SDS011;34247;50.064;19.970;2023-06-14T09:18:08;2.63;;;1.67;;
21084;SDS011;34247;50.064;19.970;2023-06-14T09:19:42;1.38;;;1.27;;
21084;SDS011;34247;50.064;19.970;2023-06-14T09:21:18;2.50;;;1.60;;
21084;SDS011;34247;50.064;19.970;2023-06-14T09:22:52;1.77;;;1.67;;
21084;SDS011;34247;50.064;19.970;2023-06-14T09:24:26;2.25;;;1.75;;
21084;SDS011;34247;50.064;19.970;2023-06-14T09:26:00;1.58;;;1.48;;
21084;SDS011;34247;50.064;19.970;2023-06-14T09:27:36;2.92;;;1.70;;
21084;SDS011;34247;50.064;19.970;2023-06-14T09:29:09;2.15;;;1.92;;
21084;SDS011;34247;50.064;19.970;2023-06-14T09:30:43;3.15;;;1.70;;
21084;SDS011;34247;50.064;19.970;2023-06-14T09:32:16;1.80;;;1.70;;
21084;SDS011;34247;50.064;19.970;2023-06-14T09:33:51;2.35;;;1.35;;